Skagway, AK

3:47 AM AKDT on September 18, 2014 (GMT -0800)
Skagway | Change Station
CLOSE
Current Station
Airport
Location: Skagway,
Elevation: 16 ft
Nearby Weather Stations

Elev 16 ft 59.46 °N, 135.32 °W | Updated 54 minutes ago

Overcast
Overcast
49 °F
Feels Like 49 °F
N
0
Wind Variable Wind from North

Today
High -- | Low -- °F
--% Chance of Precip.
Yesterday
High -- | Low -- °F
Precip. -- in
6:36 AM 7:12 PM
Waning Crescent, 28% visible
Pressure 29.51 in
Visibility 10.0 miles
Clouds Scattered Clouds 6000 ft
Mostly Cloudy 8000 ft
Overcast 10000 ft
Dew Point 46 °F
Humidity 90%
Rainfall 0.00 in
Snow Depth 0 in , 13 in , 0 in
UV 0 out of 12
Pollen Not available.
Air Quality Not available.
Flu Activity Not available.
METAR PAGY 181053Z AUTO 00000KT 10SM SCT060 BKN080 OVC100 09/08 A2951 RMK AO2 SLP993 T00940078 TSNO

More Conditions Fewer Conditions

Pressure 29.51 in
Visibility 10.0 miles
Clouds Scattered Clouds 6000 ft
Mostly Cloudy 8000 ft
Overcast 10000 ft
Dew Point 46 °F
Humidity 90%
Rainfall 0.00 in
Snow Depth 0 in , 13 in , 0 in
UV 0 out of 12
Pollen Not available.
Air Quality Not available.
Flu Activity Not available.
METAR PAGY 181053Z AUTO 00000KT 10SM SCT060 BKN080 OVC100 09/08 A2951 RMK AO2 SLP993 T00940078 TSNO

More Conditions Fewer Conditions

10-Day Weather Forecast

Almanac

Astronomy

Sep. 18, 2014 Rise Set
Actual Time 6:36 AM AKDT 7:12 PM AKDT
Civil Twilight 5:55 AM AKDT 7:53 PM AKDT
Nautical Twilight 5:05 AM AKDT 8:43 PM AKDT
Astronomical Twilight 4:09 AM AKDT 9:38 PM AKDT
Moon 12:38 AM AKDT 4:59 PM AKDT
Length of Visible Light 13h 57m
Length of Day
12h 35m
Tomorrow will be 5m 18s shorter.
Waning Crescent, 28% of the Moon is Illuminated
Today
Waning Crescent
Sep 24
New
Oct 1
First Quarter
Oct 8
Full
Oct 15
Last Quarter

Today's Extremes

State Highs State Lows

Community

WunderPhotos

Upload Photos

1,754,324 photos uploaded!

Nearby

Snow Depth

Station Depth Elevation
Grandview 0 in 1100 ft
Cooper Lake 13 in 1200 ft
Little Chena Ridge 0 in 2000 ft
Long Lake 0 in 820 ft
Grouse Creek Divide 0 in 700 ft

Earthquake Activity

City Distance Mag. Time & Date
No recent earthquake activity has been reported nearby.
Minimum magnitude displayed is 2.5.

Coastal Water Temperatures

Place Temperature
No Stations Reporting

Nearby Weather Stations